sensor_id;sensor_type;location;lat;lon;timestamp;temperature;humidity
29201;DHT22;16244;51.956;12.980;2023-07-20T00:00:13;17.50;99.90
29201;DHT22;16244;51.956;12.980;2023-07-20T00:02:40;17.40;99.90
29201;DHT22;16244;51.956;12.980;2023-07-20T00:05:07;17.40;99.90
29201;DHT22;16244;51.956;12.980;2023-07-20T00:07:35;17.30;99.40
29201;DHT22;16244;51.956;12.980;2023-07-20T00:10:02;17.30;99.90
29201;DHT22;16244;51.956;12.980;2023-07-20T00:12:30;17.30;99.90
29201;DHT22;16244;51.956;12.980;2023-07-20T00:14:59;17.20;99.90
29201;DHT22;16244;51.956;12.980;2023-07-20T00:17:26;17.20;99.90
29201;DHT22;16244;51.956;12.980;2023-07-20T00:19:54;17.20;99.90
29201;DHT22;16244;51.956;12.980;2023-07-20T00:22:21;17.20;99.90
29201;DHT22;16244;51.956;12.980;2023-07-20T00:24:49;17.20;99.90
29201;DHT22;16244;51.956;12.980;2023-07-20T00:27:16;17.30;99.90
29201;DHT22;16244;51.956;12.980;2023-07-20T00:29:44;17.30;99.90
29201;DHT22;16244;51.956;12.980;2023-07-20T00:32:12;17.30;99.90
29201;DHT22;16244;51.956;12.980;2023-07-20T00:34:40;17.30;99.90
29201;DHT22;16244;51.956;12.980;2023-07-20T00:37:07;17.30;99.90
29201;DHT22;16244;51.956;12.980;2023-07-20T00:39:35;17.30;99.90
29201;DHT22;16244;51.956;12.980;2023-07-20T00:42:02;17.30;99.90
29201;DHT22;16244;51.956;12.980;2023-07-20T00:44:30;17.30;99.90
29201;DHT22;16244;51.956;12.980;2023-07-20T00:46:58;17.30;99.90
29201;DHT22;16244;51.956;12.980;2023-07-20T00:49:26;17.30;99.90
29201;DHT22;16244;51.956;12.980;2023-07-20T00:51:54;17.30;99.90
29201;DHT22;16244;51.956;12.980;2023-07-20T00:54:22;17.30;99.90
29201;DHT22;16244;51.956;12.980;2023-07-20T00:56:50;17.20;99.90
29201;DHT22;16244;51.956;12.980;2023-07-20T00:59:20;17.20;99.90
29201;DHT22;16244;51.956;12.980;2023-07-20T01:01:48;17.20;99.90
29201;DHT22;16244;51.956;12.980;2023-07-20T01:04:15;17.10;99.90
29201;DHT22;16244;51.956;12.980;2023-07-20T01:06:51;17.10;99.90
29201;DHT22;16244;51.956;12.980;2023-07-20T01:09:27;17.20;99.90
29201;DHT22;16244;51.956;12.980;2023-07-20T01:12:02;17.10;99.90
29201;DHT22;16244;51.956;12.980;2023-07-20T01:14:32;17.10;99.90
29201;DHT22;16244;51.956;12.980;2023-07-20T01:17:01;17.10;99.90
29201;DHT22;16244;51.956;12.980;2023-07-20T01:19:29;17.10;99.90
29201;DHT22;16244;51.956;12.980;2023-07-20T01:22:01;17.10;99.90
29201;DHT22;16244;51.956;12.980;2023-07-20T01:24:52;17.20;99.90
29201;DHT22;16244;51.956;12.980;2023-07-20T01:28:06;17.10;99.90
29201;DHT22;16244;51.956;12.980;2023-07-20T01:30:56;17.10;99.90
29201;DHT22;16244;51.956;12.980;2023-07-20T01:33:28;17.10;99.90
29201;DHT22;16244;51.956;12.980;2023-07-20T01:35:59;17.00;99.90
29201;DHT22;16244;51.956;12.980;2023-07-20T01:38:28;17.10;99.90
29201;DHT22;16244;51.956;12.980;2023-07-20T01:40:57;17.00;99.90
29201;DHT22;16244;51.956;12.980;2023-07-20T01:43:25;17.10;99.90
29201;DHT22;16244;51.956;12.980;2023-07-20T01:45:53;17.10;99.90
29201;DHT22;16244;51.956;12.980;2023-07-20T01:48:20;17.10;99.90
29201;DHT22;16244;51.956;12.980;2023-07-20T01:50:49;17.00;99.90
29201;DHT22;16244;51.956;12.980;2023-07-20T01:53:17;17.10;99.90
29201;DHT22;16244;51.956;12.980;2023-07-20T01:55:44;17.10;99.90
29201;DHT22;16244;51.956;12.980;2023-07-20T01:58:12;17.10;99.90
29201;DHT22;16244;51.956;12.980;2023-07-20T02:00:39;17.00;99.90
29201;DHT22;16244;51.956;12.980;2023-07-20T02:03:07;17.00;99.90
29201;DHT22;16244;51.956;12.980;2023-07-20T02:05:34;17.10;99.90
29201;DHT22;16244;51.956;12.980;2023-07-20T02:08:03;17.00;99.90
29201;DHT22;16244;51.956;12.980;2023-07-20T02:10:31;17.00;99.90
29201;DHT22;16244;51.956;12.980;2023-07-20T02:12:58;17.00;99.90
29201;DHT22;16244;51.956;12.980;2023-07-20T02:15:26;17.00;99.90
29201;DHT22;16244;51.956;12.980;2023-07-20T02:17:54;17.00;99.90
29201;DHT22;16244;51.956;12.980;2023-07-20T02:20:21;16.90;99.90
29201;DHT22;16244;51.956;12.980;2023-07-20T02:22:48;16.80;99.90
29201;DHT22;16244;51.956;12.980;2023-07-20T02:25:17;16.70;99.90
29201;DHT22;16244;51.956;12.980;2023-07-20T02:27:45;16.70;99.90
29201;DHT22;16244;51.956;12.980;2023-07-20T02:30:12;16.60;99.90
29201;DHT22;16244;51.956;12.980;2023-07-20T02:32:42;16.50;99.90
29201;DHT22;16244;51.956;12.980;2023-07-20T02:35:12;16.40;99.90
29201;DHT22;16244;51.956;12.980;2023-07-20T02:37:39;16.30;99.90
29201;DHT22;16244;51.956;12.980;2023-07-20T02:40:07;16.30;99.90
29201;DHT22;16244;51.956;12.980;2023-07-20T02:42:37;16.20;99.90
29201;DHT22;16244;51.956;12.980;2023-07-20T02:45:05;16.10;99.90
29201;DHT22;16244;51.956;12.980;2023-07-20T02:47:33;16.00;99.90
29201;DHT22;16244;51.956;12.980;2023-07-20T02:50:00;16.00;99.90
29201;DHT22;16244;51.956;12.980;2023-07-20T02:52:28;15.90;99.90
29201;DHT22;16244;51.956;12.980;2023-07-20T02:54:56;15.90;99.90
29201;DHT22;16244;51.956;12.980;2023-07-20T02:57:23;15.90;99.90
29201;DHT22;16244;51.956;12.980;2023-07-20T02:59:52;15.80;99.90
29201;DHT22;16244;51.956;12.980;2023-07-20T03:02:20;15.80;99.90
29201;DHT22;16244;51.956;12.980;2023-07-20T03:04:47;15.70;99.90
29201;DHT22;16244;51.956;12.980;2023-07-20T03:07:15;15.60;99.90
29201;DHT22;16244;51.956;12.980;2023-07-20T03:09:42;15.50;99.90
29201;DHT22;16244;51.956;12.980;2023-07-20T03:12:10;15.50;99.90
29201;DHT22;16244;51.956;12.980;2023-07-20T03:14:38;15.50;99.90
29201;DHT22;16244;51.956;12.980;2023-07-20T03:17:06;15.40;99.90
29201;DHT22;16244;51.956;12.980;2023-07-20T03:19:34;15.40;99.90
29201;DHT22;16244;51.956;12.980;2023-07-20T03:22:02;15.40;99.90
29201;DHT22;16244;51.956;12.980;2023-07-20T03:24:30;15.40;99.90
29201;DHT22;16244;51.956;12.980;2023-07-20T03:26:57;15.40;99.90
29201;DHT22;16244;51.956;12.980;2023-07-20T03:29:25;15.40;99.90
29201;DHT22;16244;51.956;12.980;2023-07-20T03:31:52;15.30;99.90
29201;DHT22;16244;51.956;12.980;2023-07-20T03:34:21;15.30;99.90
29201;DHT22;16244;51.956;12.980;2023-07-20T03:36:49;15.30;99.90
29201;DHT22;16244;51.956;12.980;2023-07-20T03:39:16;15.20;99.90
29201;DHT22;16244;51.956;12.980;2023-07-20T03:41:44;15.10;99.90
29201;DHT22;16244;51.956;12.980;2023-07-20T03:44:11;15.10;99.90
29201;DHT22;16244;51.956;12.980;2023-07-20T03:46:38;15.20;99.90
29201;DHT22;16244;51.956;12.980;2023-07-20T03:49:06;15.20;99.90
29201;DHT22;16244;51.956;12.980;2023-07-20T03:51:36;15.20;99.90
29201;DHT22;16244;51.956;12.980;2023-07-20T03:54:04;15.10;99.90
29201;DHT22;16244;51.956;12.980;2023-07-20T03:56:31;15.10;99.90
29201;DHT22;16244;51.956;12.980;2023-07-20T03:59:01;15.10;99.90
29201;DHT22;16244;51.956;12.980;2023-07-20T04:01:29;15.20;99.90
29201;DHT22;16244;51.956;12.980;2023-07-20T04:03:56;15.30;99.90
29201;DHT22;16244;51.956;12.980;2023-07-20T04:06:24;15.40;99.90
29201;DHT22;16244;51.956;12.980;2023-07-20T04:08:53;15.40;99.90
29201;DHT22;16244;51.956;12.980;2023-07-20T04:11:20;15.40;99.90
29201;DHT22;16244;51.956;12.980;2023-07-20T04:13:47;15.60;99.90
29201;DHT22;16244;51.956;12.980;2023-07-20T04:16:15;15.60;99.90
29201;DHT22;16244;51.956;12.980;2023-07-20T04:18:42;15.70;99.90
29201;DHT22;16244;51.956;12.980;2023-07-20T04:21:10;15.70;99.90
29201;DHT22;16244;51.956;12.980;2023-07-20T04:23:37;15.80;99.90
29201;DHT22;16244;51.956;12.980;2023-07-20T04:26:06;15.90;99.90
29201;DHT22;16244;51.956;12.980;2023-07-20T04:28:34;16.00;99.90
29201;DHT22;16244;51.956;12.980;2023-07-20T04:31:09;16.10;99.90
29201;DHT22;16244;51.956;12.980;2023-07-20T04:33:37;16.20;99.90
29201;DHT22;16244;51.956;12.980;2023-07-20T04:36:05;16.20;99.90
29201;DHT22;16244;51.956;12.980;2023-07-20T04:38:33;16.20;99.90
29201;DHT22;16244;51.956;12.980;2023-07-20T04:41:01;16.30;99.90
29201;DHT22;16244;51.956;12.980;2023-07-20T04:43:30;16.40;99.90
29201;DHT22;16244;51.956;12.980;2023-07-20T04:45:57;16.40;99.90
29201;DHT22;16244;51.956;12.980;2023-07-20T04:48:25;16.30;99.90
29201;DHT22;16244;51.956;12.980;2023-07-20T04:50:52;16.40;99.90
29201;DHT22;16244;51.956;12.980;2023-07-20T04:53:20;16.50;99.90
29201;DHT22;16244;51.956;12.980;2023-07-20T04:55:48;16.50;99.90
29201;DHT22;16244;51.956;12.980;2023-07-20T04:58:18;16.70;99.90
29201;DHT22;16244;51.956;12.980;2023-07-20T05:00:48;16.90;99.90
29201;DHT22;16244;51.956;12.980;2023-07-20T05:03:15;17.00;99.90
29201;DHT22;16244;51.956;12.980;2023-07-20T05:05:43;17.20;99.90
29201;DHT22;16244;51.956;12.980;2023-07-20T05:08:10;17.30;99.90
29201;DHT22;16244;51.956;12.980;2023-07-20T05:10:38;17.40;99.90
29201;DHT22;16244;51.956;12.980;2023-07-20T05:13:05;17.30;99.90
29201;DHT22;16244;51.956;12.980;2023-07-20T05:15:33;17.30;99.90
29201;DHT22;16244;51.956;12.980;2023-07-20T05:18:02;17.30;99.90
29201;DHT22;16244;51.956;12.980;2023-07-20T05:20:30;17.20;99.90
29201;DHT22;16244;51.956;12.980;2023-07-20T05:22:59;17.20;99.90
29201;DHT22;16244;51.956;12.980;2023-07-20T05:25:27;17.20;99.90
29201;DHT22;16244;51.956;12.980;2023-07-20T05:27:54;17.20;99.90
29201;DHT22;16244;51.956;12.980;2023-07-20T05:30:22;17.10;99.90
29201;DHT22;16244;51.956;12.980;2023-07-20T05:32:50;17.10;99.90
29201;DHT22;16244;51.956;12.980;2023-07-20T05:35:19;17.10;99.90
29201;DHT22;16244;51.956;12.980;2023-07-20T05:37:47;17.10;99.90
29201;DHT22;16244;51.956;12.980;2023-07-20T05:40:15;17.10;99.90
29201;DHT22;16244;51.956;12.980;2023-07-20T05:42:45;17.10;99.90
29201;DHT22;16244;51.956;12.980;2023-07-20T05:45:14;17.10;99.90
29201;DHT22;16244;51.956;12.980;2023-07-20T05:47:42;17.10;99.90
29201;DHT22;16244;51.956;12.980;2023-07-20T05:50:10;17.10;99.90
29201;DHT22;16244;51.956;12.980;2023-07-20T05:52:40;17.20;99.90
29201;DHT22;16244;51.956;12.980;2023-07-20T05:55:08;17.20;99.90
29201;DHT22;16244;51.956;12.980;2023-07-20T05:57:35;17.30;99.90
29201;DHT22;16244;51.956;12.980;2023-07-20T06:00:07;17.30;99.90
29201;DHT22;16244;51.956;12.980;2023-07-20T06:02:35;17.30;99.90
29201;DHT22;16244;51.956;12.980;2023-07-20T06:05:02;17.30;99.90
29201;DHT22;16244;51.956;12.980;2023-07-20T06:07:30;17.30;99.90
29201;DHT22;16244;51.956;12.980;2023-07-20T06:09:59;17.40;99.90
29201;DHT22;16244;51.956;12.980;2023-07-20T06:12:27;17.40;99.90
29201;DHT22;16244;51.956;12.980;2023-07-20T06:14:54;17.40;99.90
29201;DHT22;16244;51.956;12.980;2023-07-20T06:17:22;17.30;99.90
29201;DHT22;16244;51.956;12.980;2023-07-20T06:19:49;17.40;99.90
29201;DHT22;16244;51.956;12.980;2023-07-20T06:22:16;17.50;99.90
29201;DHT22;16244;51.956;12.980;2023-07-20T06:24:44;17.30;98.80
29201;DHT22;16244;51.956;12.980;2023-07-20T06:27:13;17.30;99.70
29201;DHT22;16244;51.956;12.980;2023-07-20T06:29:41;17.40;99.80
29201;DHT22;16244;51.956;12.980;2023-07-20T06:32:08;17.60;99.90
29201;DHT22;16244;51.956;12.980;2023-07-20T06:34:36;17.70;98.10
29201;DHT22;16244;51.956;12.980;2023-07-20T06:37:04;17.60;96.90
29201;DHT22;16244;51.956;12.980;2023-07-20T06:39:32;17.70;98.00
29201;DHT22;16244;51.956;12.980;2023-07-20T06:41:59;17.60;98.30
29201;DHT22;16244;51.956;12.980;2023-07-20T06:44:28;17.60;99.00
29201;DHT22;16244;51.956;12.980;2023-07-20T06:46:55;17.80;98.30
29201;DHT22;16244;51.956;12.980;2023-07-20T06:49:26;17.80;96.70
29201;DHT22;16244;51.956;12.980;2023-07-20T06:51:54;17.90;96.50
29201;DHT22;16244;51.956;12.980;2023-07-20T06:54:22;18.00;96.10
29201;DHT22;16244;51.956;12.980;2023-07-20T06:56:49;18.20;94.60
29201;DHT22;16244;51.956;12.980;2023-07-20T06:59:17;18.30;94.90
29201;DHT22;16244;51.956;12.980;2023-07-20T07:01:45;18.20;92.30
29201;DHT22;16244;51.956;12.980;2023-07-20T07:04:13;18.10;92.60
29201;DHT22;16244;51.956;12.980;2023-07-20T07:06:40;18.10;91.80
29201;DHT22;16244;51.956;12.980;2023-07-20T07:09:08;18.20;91.10
29201;DHT22;16244;51.956;12.980;2023-07-20T07:11:35;18.10;90.00
29201;DHT22;16244;51.956;12.980;2023-07-20T07:14:03;17.90;90.80
29201;DHT22;16244;51.956;12.980;2023-07-20T07:16:30;17.90;91.80
29201;DHT22;16244;51.956;12.980;2023-07-20T07:18:59;17.80;92.90
29201;DHT22;16244;51.956;12.980;2023-07-20T07:21:27;18.20;92.20
29201;DHT22;16244;51.956;12.980;2023-07-20T07:23:54;18.50;90.20
29201;DHT22;16244;51.956;12.980;2023-07-20T07:26:23;18.50;87.60
29201;DHT22;16244;51.956;12.980;2023-07-20T07:28:51;18.70;87.70
29201;DHT22;16244;51.956;12.980;2023-07-20T07:31:18;19.00;88.90
29201;DHT22;16244;51.956;12.980;2023-07-20T07:33:47;19.40;87.10
29201;DHT22;16244;51.956;12.980;2023-07-20T07:36:16;20.00;85.40
29201;DHT22;16244;51.956;12.980;2023-07-20T07:38:43;20.30;79.00
29201;DHT22;16244;51.956;12.980;2023-07-20T07:41:11;20.20;77.30
29201;DHT22;16244;51.956;12.980;2023-07-20T07:43:38;20.10;78.60
29201;DHT22;16244;51.956;12.980;2023-07-20T07:46:06;19.50;80.10
29201;DHT22;16244;51.956;12.980;2023-07-20T07:48:34;19.20;82.20
29201;DHT22;16244;51.956;12.980;2023-07-20T07:51:01;19.40;82.80
29201;DHT22;16244;51.956;12.980;2023-07-20T07:53:30;20.00;76.00
29201;DHT22;16244;51.956;12.980;2023-07-20T07:55:59;20.10;76.50
29201;DHT22;16244;51.956;12.980;2023-07-20T07:58:26;20.00;74.80
29201;DHT22;16244;51.956;12.980;2023-07-20T08:00:54;19.80;78.60
29201;DHT22;16244;51.956;12.980;2023-07-20T08:03:22;19.90;76.60
29201;DHT22;16244;51.956;12.980;2023-07-20T08:05:50;19.90;83.50
29201;DHT22;16244;51.956;12.980;2023-07-20T08:08:18;20.10;80.70
29201;DHT22;16244;51.956;12.980;2023-07-20T08:10:47;20.60;82.50
29201;DHT22;16244;51.956;12.980;2023-07-20T08:13:15;21.10;69.90
29201;DHT22;16244;51.956;12.980;2023-07-20T08:15:50;21.20;72.10
29201;DHT22;16244;51.956;12.980;2023-07-20T08:18:18;21.50;62.60
29201;DHT22;16244;51.956;12.980;2023-07-20T08:20:46;21.40;64.50
29201;DHT22;16244;51.956;12.980;2023-07-20T08:23:14;21.30;65.20
29201;DHT22;16244;51.956;12.980;2023-07-20T08:25:42;21.00;68.70
29201;DHT22;16244;51.956;12.980;2023-07-20T08:28:13;20.50;67.00
29201;DHT22;16244;51.956;12.980;2023-07-20T08:30:42;20.30;69.50
29201;DHT22;16244;51.956;12.980;2023-07-20T08:33:12;20.70;71.40
29201;DHT22;16244;51.956;12.980;2023-07-20T08:35:40;20.80;65.50
29201;DHT22;16244;51.956;12.980;2023-07-20T08:38:07;21.10;69.90
29201;DHT22;16244;51.956;12.980;2023-07-20T08:40:40;21.80;62.00
29201;DHT22;16244;51.956;12.980;2023-07-20T08:43:09;22.10;60.40
29201;DHT22;16244;51.956;12.980;2023-07-20T08:45:39;22.20;58.50
29201;DHT22;16244;51.956;12.980;2023-07-20T08:48:08;22.20;60.80
29201;DHT22;16244;51.956;12.980;2023-07-20T08:50:37;21.80;57.20
29201;DHT22;16244;51.956;12.980;2023-07-20T08:53:06;21.40;62.90
29201;DHT22;16244;51.956;12.980;2023-07-20T08:55:34;21.20;68.30
29201;DHT22;16244;51.956;12.980;2023-07-20T08:58:03;20.80;70.40
29201;DHT22;16244;51.956;12.980;2023-07-20T09:00:33;20.80;68.10
29201;DHT22;16244;51.956;12.980;2023-07-20T09:03:03;20.70;72.00
29201;DHT22;16244;51.956;12.980;2023-07-20T09:05:32;20.80;67.80
29201;DHT22;16244;51.956;12.980;2023-07-20T09:08:01;21.10;64.80
29201;DHT22;16244;51.956;12.980;2023-07-20T09:10:29;21.00;65.50
29201;DHT22;16244;51.956;12.980;2023-07-20T09:12:57;21.30;72.90
29201;DHT22;16244;51.956;12.980;2023-07-20T09:15:25;21.80;66.70
29201;DHT22;16244;51.956;12.980;2023-07-20T09:17:53;22.00;64.20
29201;DHT22;16244;51.956;12.980;2023-07-20T09:20:22;22.10;63.10
29201;DHT22;16244;51.956;12.980;2023-07-20T09:22:51;22.30;64.40
29201;DHT22;16244;51.956;12.980;2023-07-20T09:25:19;22.50;58.40
29201;DHT22;16244;51.956;12.980;2023-07-20T09:27:47;23.00;56.20
29201;DHT22;16244;51.956;12.980;2023-07-20T09:30:16;23.70;55.60
29201;DHT22;16244;51.956;12.980;2023-07-20T09:32:45;24.10;51.10
29201;DHT22;16244;51.956;12.980;2023-07-20T09:35:14;24.40;48.20
29201;DHT22;16244;51.956;12.980;2023-07-20T09:37:49;24.60;49.20
29201;DHT22;16244;51.956;12.980;2023-07-20T09:40:18;24.80;47.60
29201;DHT22;16244;51.956;12.980;2023-07-20T09:42:47;24.20;47.10
29201;DHT22;16244;51.956;12.980;2023-07-20T09:45:14;24.10;49.40
29201;DHT22;16244;51.956;12.980;2023-07-20T09:47:42;24.10;47.40
29201;DHT22;16244;51.956;12.980;2023-07-20T09:50:09;23.90;48.30
29201;DHT22;16244;51.956;12.980;2023-07-20T09:52:38;23.80;48.10
29201;DHT22;16244;51.956;12.980;2023-07-20T09:55:08;23.40;48.30
29201;DHT22;16244;51.956;12.980;2023-07-20T09:57:37;23.00;50.50
29201;DHT22;16244;51.956;12.980;2023-07-20T10:00:07;23.00;49.60
29201;DHT22;16244;51.956;12.980;2023-07-20T10:02:42;22.80;52.20
29201;DHT22;16244;51.956;12.980;2023-07-20T10:05:12;22.70;51.50
29201;DHT22;16244;51.956;12.980;2023-07-20T10:07:44;22.70;52.70
29201;DHT22;16244;51.956;12.980;2023-07-20T10:10:16;22.30;52.00
29201;DHT22;16244;51.956;12.980;2023-07-20T10:12:46;22.30;52.50
29201;DHT22;16244;51.956;12.980;2023-07-20T10:15:19;22.10;56.80
29201;DHT22;16244;51.956;12.980;2023-07-20T10:17:57;22.20;56.80
29201;DHT22;16244;51.956;12.980;2023-07-20T10:20:25;22.30;52.30
29201;DHT22;16244;51.956;12.980;2023-07-20T10:22:54;22.20;56.00
29201;DHT22;16244;51.956;12.980;2023-07-20T10:25:24;22.20;57.10
29201;DHT22;16244;51.956;12.980;2023-07-20T10:27:51;22.20;54.30
29201;DHT22;16244;51.956;12.980;2023-07-20T10:30:19;22.20;55.80
29201;DHT22;16244;51.956;12.980;2023-07-20T10:32:48;22.00;57.10
29201;DHT22;16244;51.956;12.980;2023-07-20T10:35:17;22.00;53.80
29201;DHT22;16244;51.956;12.980;2023-07-20T10:37:47;21.90;53.90
29201;DHT22;16244;51.956;12.980;2023-07-20T10:40:32;21.80;58.00
29201;DHT22;16244;51.956;12.980;2023-07-20T10:43:02;21.60;58.60
29201;DHT22;16244;51.956;12.980;2023-07-20T10:45:47;21.50;56.50
29201;DHT22;16244;51.956;12.980;2023-07-20T10:48:16;21.60;57.50
29201;DHT22;16244;51.956;12.980;2023-07-20T10:50:44;21.70;54.40
29201;DHT22;16244;51.956;12.980;2023-07-20T10:53:12;21.80;57.40
29201;DHT22;16244;51.956;12.980;2023-07-20T10:55:43;21.90;54.70
29201;DHT22;16244;51.956;12.980;2023-07-20T10:58:13;21.90;55.50
29201;DHT22;16244;51.956;12.980;2023-07-20T11:00:56;22.10;54.90
29201;DHT22;16244;51.956;12.980;2023-07-20T11:03:30;22.00;55.00
29201;DHT22;16244;51.956;12.980;2023-07-20T11:05:58;22.20;61.70
29201;DHT22;16244;51.956;12.980;2023-07-20T11:08:40;22.30;58.50
29201;DHT22;16244;51.956;12.980;2023-07-20T11:11:26;22.30;51.90
29201;DHT22;16244;51.956;12.980;2023-07-20T11:13:58;22.10;53.00
29201;DHT22;16244;51.956;12.980;2023-07-20T11:16:37;21.80;56.30
29201;DHT22;16244;51.956;12.980;2023-07-20T11:19:06;21.80;53.90
29201;DHT22;16244;51.956;12.980;2023-07-20T11:21:41;21.80;54.80
29201;DHT22;16244;51.956;12.980;2023-07-20T11:24:09;22.00;60.00
29201;DHT22;16244;51.956;12.980;2023-07-20T11:26:42;21.90;54.90
29201;DHT22;16244;51.956;12.980;2023-07-20T11:29:09;22.00;62.50
29201;DHT22;16244;51.956;12.980;2023-07-20T11:31:38;22.10;57.50
29201;DHT22;16244;51.956;12.980;2023-07-20T11:34:06;22.30;51.60
29201;DHT22;16244;51.956;12.980;2023-07-20T11:36:33;22.30;57.20
29201;DHT22;16244;51.956;12.980;2023-07-20T11:39:01;22.40;55.40
29201;DHT22;16244;51.956;12.980;2023-07-20T11:41:31;22.40;56.00
29201;DHT22;16244;51.956;12.980;2023-07-20T11:44:00;22.60;53.40
29201;DHT22;16244;51.956;12.980;2023-07-20T11:46:28;22.80;52.20
29201;DHT22;16244;51.956;12.980;2023-07-20T11:48:59;22.90;51.80
29201;DHT22;16244;51.956;12.980;2023-07-20T11:51:28;23.30;54.40
29201;DHT22;16244;51.956;12.980;2023-07-20T11:53:56;23.70;49.40
29201;DHT22;16244;51.956;12.980;2023-07-20T11:56:25;23.80;51.20
29201;DHT22;16244;51.956;12.980;2023-07-20T11:58:55;24.00;50.60
29201;DHT22;16244;51.956;12.980;2023-07-20T12:01:27;23.80;50.50
29201;DHT22;16244;51.956;12.980;2023-07-20T12:03:56;23.70;50.70
29201;DHT22;16244;51.956;12.980;2023-07-20T12:06:24;23.50;50.40
29201;DHT22;16244;51.956;12.980;2023-07-20T12:08:55;23.70;51.00
29201;DHT22;16244;51.956;12.980;2023-07-20T12:11:33;23.50;49.10
29201;DHT22;16244;51.956;12.980;2023-07-20T12:14:01;23.30;50.50
29201;DHT22;16244;51.956;12.980;2023-07-20T12:16:30;23.20;54.20
29201;DHT22;16244;51.956;12.980;2023-07-20T12:19:02;23.00;50.80
29201;DHT22;16244;51.956;12.980;2023-07-20T12:21:30;22.90;50.40
29201;DHT22;16244;51.956;12.980;2023-07-20T12:23:58;22.80;52.30
29201;DHT22;16244;51.956;12.980;2023-07-20T12:26:26;22.70;51.80
29201;DHT22;16244;51.956;12.980;2023-07-20T12:28:56;22.70;56.00
29201;DHT22;16244;51.956;12.980;2023-07-20T12:31:25;22.90;54.30
29201;DHT22;16244;51.956;12.980;2023-07-20T12:33:54;23.20;55.70
29201;DHT22;16244;51.956;12.980;2023-07-20T12:36:22;23.20;54.00
29201;DHT22;16244;51.956;12.980;2023-07-20T12:38:51;23.30;51.60
29201;DHT22;16244;51.956;12.980;2023-07-20T12:41:20;23.50;56.20
29201;DHT22;16244;51.956;12.980;2023-07-20T12:43:47;23.40;52.00
29201;DHT22;16244;51.956;12.980;2023-07-20T12:46:14;23.50;49.80
29201;DHT22;16244;51.956;12.980;2023-07-20T12:48:42;23.90;53.00
29201;DHT22;16244;51.956;12.980;2023-07-20T12:51:12;23.80;50.80
29201;DHT22;16244;51.956;12.980;2023-07-20T12:53:39;23.70;51.80
29201;DHT22;16244;51.956;12.980;2023-07-20T12:56:08;23.50;49.10
29201;DHT22;16244;51.956;12.980;2023-07-20T12:58:36;23.50;52.40
29201;DHT22;16244;51.956;12.980;2023-07-20T13:01:05;23.80;51.50
29201;DHT22;16244;51.956;12.980;2023-07-20T13:03:32;23.60;46.80
29201;DHT22;16244;51.956;12.980;2023-07-20T13:05:59;23.10;47.90
29201;DHT22;16244;51.956;12.980;2023-07-20T13:08:28;22.20;51.40
29201;DHT22;16244;51.956;12.980;2023-07-20T13:10:56;21.70;54.90
29201;DHT22;16244;51.956;12.980;2023-07-20T13:13:23;21.50;55.60
29201;DHT22;16244;51.956;12.980;2023-07-20T13:15:51;21.30;57.30
29201;DHT22;16244;51.956;12.980;2023-07-20T13:18:19;21.10;56.70
29201;DHT22;16244;51.956;12.980;2023-07-20T13:20:47;21.00;57.80
29201;DHT22;16244;51.956;12.980;2023-07-20T13:23:15;21.00;57.20
29201;DHT22;16244;51.956;12.980;2023-07-20T13:25:43;21.10;58.20
29201;DHT22;16244;51.956;12.980;2023-07-20T13:28:11;21.20;57.30
29201;DHT22;16244;51.956;12.980;2023-07-20T13:30:38;21.40;56.30
29201;DHT22;16244;51.956;12.980;2023-07-20T13:33:06;21.30;56.10
29201;DHT22;16244;51.956;12.980;2023-07-20T13:35:33;21.60;56.00
29201;DHT22;16244;51.956;12.980;2023-07-20T13:38:01;21.80;54.70
29201;DHT22;16244;51.956;12.980;2023-07-20T13:40:28;22.10;52.60
29201;DHT22;16244;51.956;12.980;2023-07-20T13:42:57;22.40;53.80
29201;DHT22;16244;51.956;12.980;2023-07-20T13:45:25;23.20;50.60
29201;DHT22;16244;51.956;12.980;2023-07-20T13:47:52;23.80;48.90
29201;DHT22;16244;51.956;12.980;2023-07-20T13:50:20;24.00;44.80
29201;DHT22;16244;51.956;12.980;2023-07-20T13:52:48;23.60;46.00
29201;DHT22;16244;51.956;12.980;2023-07-20T13:55:17;23.30;46.40
29201;DHT22;16244;51.956;12.980;2023-07-20T13:57:45;23.10;46.50
29201;DHT22;16244;51.956;12.980;2023-07-20T14:00:14;23.00;49.50
29201;DHT22;16244;51.956;12.980;2023-07-20T14:02:42;23.20;49.20
29201;DHT22;16244;51.956;12.980;2023-07-20T14:05:10;23.40;49.50
29201;DHT22;16244;51.956;12.980;2023-07-20T14:07:39;23.30;46.20
29201;DHT22;16244;51.956;12.980;2023-07-20T14:10:07;23.40;48.70
29201;DHT22;16244;51.956;12.980;2023-07-20T14:12:35;23.80;45.60
29201;DHT22;16244;51.956;12.980;2023-07-20T14:15:04;24.40;44.80
29201;DHT22;16244;51.956;12.980;2023-07-20T14:17:33;25.00;41.50
29201;DHT22;16244;51.956;12.980;2023-07-20T14:20:01;25.10;40.30
29201;DHT22;16244;51.956;12.980;2023-07-20T14:22:31;25.40;40.10
29201;DHT22;16244;51.956;12.980;2023-07-20T14:25:00;25.90;38.10
29201;DHT22;16244;51.956;12.980;2023-07-20T14:27:28;26.10;39.20
29201;DHT22;16244;51.956;12.980;2023-07-20T14:29:56;25.40;37.60
29201;DHT22;16244;51.956;12.980;2023-07-20T14:32:24;25.30;41.40
29201;DHT22;16244;51.956;12.980;2023-07-20T14:34:52;25.50;38.60
29201;DHT22;16244;51.956;12.980;2023-07-20T14:37:20;25.10;38.80
29201;DHT22;16244;51.956;12.980;2023-07-20T14:39:50;25.20;41.00
29201;DHT22;16244;51.956;12.980;2023-07-20T14:42:19;25.00;38.30
29201;DHT22;16244;51.956;12.980;2023-07-20T14:44:48;24.90;39.70
29201;DHT22;16244;51.956;12.980;2023-07-20T14:47:16;25.00;39.30
29201;DHT22;16244;51.956;12.980;2023-07-20T14:49:44;25.50;39.40
29201;DHT22;16244;51.956;12.980;2023-07-20T14:52:16;25.50;33.80
29201;DHT22;16244;51.956;12.980;2023-07-20T14:54:45;25.20;34.90
29201;DHT22;16244;51.956;12.980;2023-07-20T14:57:17;24.90;35.00
29201;DHT22;16244;51.956;12.980;2023-07-20T14:59:46;24.70;36.90
29201;DHT22;16244;51.956;12.980;2023-07-20T15:02:14;24.50;36.40
29201;DHT22;16244;51.956;12.980;2023-07-20T15:04:45;24.30;36.50
29201;DHT22;16244;51.956;12.980;2023-07-20T15:07:15;24.30;37.60
29201;DHT22;16244;51.956;12.980;2023-07-20T15:09:43;24.40;37.50
29201;DHT22;16244;51.956;12.980;2023-07-20T15:12:11;24.60;34.80
29201;DHT22;16244;51.956;12.980;2023-07-20T15:14:41;24.40;35.30
29201;DHT22;16244;51.956;12.980;2023-07-20T15:17:12;24.00;36.00
29201;DHT22;16244;51.956;12.980;2023-07-20T15:19:41;23.50;37.40
29201;DHT22;16244;51.956;12.980;2023-07-20T15:22:09;23.30;38.80
29201;DHT22;16244;51.956;12.980;2023-07-20T15:24:38;23.20;38.20